モスクワ/シェレメーチエヴォ の空港の天気 - METARとTAF

シェレメーチエヴォ国際空港(モスクワ) ( UUEE / SVO ) - ロシア モスクワ
飛行場実況気象(Metar)
観測時間01/23 06:30 MSK (01/23 03:30 UTC)
風向・風速南西 4m/s
視程9000m
天気現象弱い雪
全天を覆う雲 雲底高度 90m
気温-10℃
湿度92%
気圧1022hPa
METARUUEE 230330Z 22004MPS 9000 -SN OVC003 M10/M11 Q1022 R24R/450345 R24L/450351 NOSIG
過去の天気等 Google飛行場航空写真 Wunderground天気予報

過去48時間のMETAR

飛行場予報(TAF)
発表時間: 1/23 04:57 MSK (1/23 01:57 UTC)
予報対象時間: 23日6時 MSK ~ 24日6時 MSK
風向・風速南西 3m/s
視程6,000m
全天の8割程度の雲 雲底高度 120m
23日6時 MSK ~ 23日10時 MSK に一時的に
視程1,000m
天気現象弱い雪 もや
全天の8割程度の雲 雲底高度 60m
23日10時 MSK ~ 23日12時 MSK に徐々に
視程9,000m
全天の4割程度の雲 雲底高度 460m
23日18時 MSK ~ 23日20時 MSK に徐々に
風向・風速西北西 4m/s
TAF UUEE 230157Z 2303/2403 22003MPS 6000 BKN004 TXM08/2312Z TNM12/2303Z
TEMPO 2303/2307 1000 -SN BR BKN002
BECMG 2307/2309 9000 SCT015
BECMG 2315/2317 29004MPS